Time;durP1;ratioP1;P1;durP2;ratioP2;P2;SDS_P1;SDS_P2;PMS_P1;PMS_P2;Temp;Humidity;BMP_temperature;BMP_pressure;BME280_temperature;BME280_humidity;BME280_pressure;Samples;Min_cycle;Max_cycle;Signal;HPM_P1;HPM_P2
2023/07/02 00:00:09;;;;;;;12.82;3.30;;;13.10;99.90;;;;;;4857364;29;20050;-63
2023/07/02 00:02:37;;;;;;;10.30;3.28;;;13.10;99.90;;;;;;4853053;29;20053;-66
2023/07/02 00:05:06;;;;;;;14.68;3.85;;;13.10;99.90;;;;;;4854048;29;20044;-64
2023/07/02 00:07:36;;;;;;;12.43;3.33;;;13.00;99.90;;;;;;4856293;29;20060;-63
2023/07/02 00:10:05;;;;;;;13.00;3.17;;;13.00;99.90;;;;;;4854949;29;20056;-66
2023/07/02 00:12:33;;;;;;;11.27;3.63;;;12.90;99.90;;;;;;4838463;29;20331;-62
2023/07/02 00:15:01;;;;;;;12.50;3.35;;;12.80;99.90;;;;;;4857465;29;20054;-63
2023/07/02 00:17:30;;;;;;;10.65;2.95;;;12.80;99.90;;;;;;4857210;29;20430;-61
2023/07/02 00:20:02;;;;;;;10.07;3.47;;;12.80;99.90;;;;;;4856861;29;20057;-62
2023/07/02 00:22:31;;;;;;;11.68;3.67;;;12.80;99.90;;;;;;4871075;29;20521;-62
2023/07/02 00:24:59;;;;;;;14.55;3.53;;;12.80;99.90;;;;;;4853990;29;20053;-62
2023/07/02 00:27:26;;;;;;;12.10;3.60;;;12.70;99.90;;;;;;4844064;29;20068;-62
2023/07/02 00:29:54;;;;;;;14.75;3.47;;;12.70;99.90;;;;;;4857857;29;20065;-62
2023/07/02 00:32:22;;;;;;;19.92;5.03;;;12.70;99.90;;;;;;4856703;29;20049;-64
2023/07/02 00:34:49;;;;;;;11.70;4.07;;;12.60;99.90;;;;;;4854911;29;20588;-66
2023/07/02 00:37:17;;;;;;;13.23;3.50;;;12.60;99.90;;;;;;4855604;29;20070;-61
2023/07/02 00:39:45;;;;;;;11.50;3.88;;;12.60;99.90;;;;;;4856445;29;20554;-62
2023/07/02 00:42:14;;;;;;;13.25;3.45;;;12.50;99.90;;;;;;4840876;29;20054;-59
2023/07/02 00:44:42;;;;;;;9.10;3.50;;;12.60;99.90;;;;;;4851262;29;20406;-60
2023/07/02 00:47:11;;;;;;;12.18;4.63;;;12.50;99.90;;;;;;4871022;29;20053;-60
2023/07/02 00:49:40;;;;;;;30.40;5.45;;;12.50;99.90;;;;;;4854135;29;20041;-61
2023/07/02 00:52:07;;;;;;;10.33;2.93;;;12.50;99.90;;;;;;4856825;29;20058;-61
2023/07/02 00:54:36;;;;;;;8.52;2.85;;;12.50;99.90;;;;;;4870379;29;20077;-60
2023/07/02 00:57:05;;;;;;;8.88;3.10;;;12.50;99.90;;;;;;4840533;29;20058;-59
2023/07/02 00:59:35;;;;;;;12.38;4.50;;;12.50;99.90;;;;;;4857465;29;20502;-59
2023/07/02 01:02:04;;;;;;;;;;;12.40;99.90;;;;;;4853914;29;20379;-60
2023/07/02 01:04:31;;;;;;;10.00;3.20;;;12.40;99.90;;;;;;4866599;29;20380;-60
2023/07/02 01:06:59;;;;;;;16.40;3.65;;;12.30;99.90;;;;;;4837427;29;20053;-61
2023/07/02 01:09:27;;;;;;;12.65;4.70;;;12.30;99.90;;;;;;4856055;29;20061;-60
2023/07/02 01:12:01;;;;;;;13.60;3.58;;;12.30;99.90;;;;;;4853785;29;20053;-60
2023/07/02 01:14:33;;;;;;;8.80;2.95;;;12.30;99.90;;;;;;4854873;29;20049;-61
2023/07/02 01:17:04;;;;;;;8.32;3.50;;;12.20;99.90;;;;;;4854690;29;20046;-60
2023/07/02 01:19:44;;;;;;;10.45;3.17;;;12.20;99.90;;;;;;4855770;29;20057;-60
2023/07/02 01:22:12;;;;;;;13.75;3.58;;;12.20;99.90;;;;;;4837187;29;20053;-61
2023/07/02 01:24:41;;;;;;;11.50;3.70;;;12.10;99.90;;;;;;4853794;29;20045;-61
2023/07/02 01:27:10;;;;;;;9.73;3.63;;;12.10;99.90;;;;;;4843343;29;20418;-61
2023/07/02 01:29:38;;;;;;;12.68;3.25;;;12.00;99.90;;;;;;4857947;29;20049;-60
2023/07/02 01:32:08;;;;;;;11.30;3.25;;;12.00;99.90;;;;;;4848303;29;20199;-61
2023/07/02 01:34:35;;;;;;;13.43;3.30;;;11.90;99.90;;;;;;4858839;29;20053;-61
2023/07/02 01:37:04;;;;;;;9.10;3.38;;;11.90;99.90;;;;;;4857065;29;20054;-60
2023/07/02 01:39:32;;;;;;;10.27;3.60;;;11.90;99.90;;;;;;4857831;29;20053;-60
2023/07/02 01:42:11;;;;;;;12.05;3.85;;;11.90;99.90;;;;;;4858729;29;20058;-60
2023/07/02 01:44:39;;;;;;;15.02;4.10;;;11.90;99.90;;;;;;4858857;29;20045;-61
2023/07/02 01:47:07;;;;;;;14.25;4.13;;;11.80;99.90;;;;;;4872258;29;20073;-61
2023/07/02 01:49:38;;;;;;;9.27;3.22;;;11.80;99.90;;;;;;4859262;29;20053;-59
2023/07/02 01:52:06;;;;;;;18.92;5.28;;;11.80;99.90;;;;;;4858958;29;20053;-61
2023/07/02 01:54:35;;;;;;;9.35;3.17;;;11.80;99.90;;;;;;4873292;29;20041;-59
2023/07/02 01:57:03;;;;;;;13.93;3.57;;;11.80;99.90;;;;;;4873437;29;20056;-59
2023/07/02 01:59:31;;;;;;;11.57;3.53;;;11.80;99.90;;;;;;4874313;29;20311;-60
2023/07/02 02:01:59;;;;;;;11.00;3.38;;;11.70;99.90;;;;;;4858932;29;20075;-60
2023/07/02 02:04:27;;;;;;;13.98;3.40;;;11.70;99.90;;;;;;4857745;29;20041;-60
2023/07/02 02:06:56;;;;;;;13.85;3.47;;;11.70;99.90;;;;;;4859024;29;20049;-67
2023/07/02 02:09:24;;;;;;;12.93;3.28;;;11.70;99.90;;;;;;4842527;29;20065;-67
2023/07/02 02:11:54;;;;;;;10.70;3.13;;;11.70;99.90;;;;;;4857399;29;20060;-64
2023/07/02 02:14:22;;;;;;;12.38;3.72;;;11.70;99.90;;;;;;4857339;29;20049;-69
2023/07/02 02:16:50;;;;;;;9.55;3.47;;;11.70;99.90;;;;;;4858895;29;20056;-68
2023/07/02 02:19:18;;;;;;;8.50;3.22;;;11.70;99.90;;;;;;4858993;29;20053;-63
2023/07/02 02:21:45;;;;;;;12.25;3.55;;;11.70;99.90;;;;;;4857631;29;20056;-62
2023/07/02 02:24:13;;;;;;;9.80;3.15;;;11.70;99.90;;;;;;4857619;29;20056;-69
2023/07/02 02:26:41;;;;;;;13.57;4.13;;;11.70;99.90;;;;;;4857675;29;20052;-68
2023/07/02 02:29:09;;;;;;;12.20;3.70;;;11.70;99.90;;;;;;4872560;29;20493;-68
2023/07/02 02:31:37;;;;;;;14.88;3.97;;;11.80;99.90;;;;;;4868260;29;20410;-69
2023/07/02 02:34:05;;;;;;;10.93;4.65;;;11.70;99.90;;;;;;4876216;29;20053;-69
2023/07/02 02:36:34;;;;;;;9.55;3.38;;;11.80;99.90;;;;;;4846242;29;20042;-69
2023/07/02 02:39:02;;;;;;;11.77;3.53;;;11.70;99.90;;;;;;4842576;29;20049;-69
2023/07/02 02:41:31;;;;;;;13.40;3.08;;;11.70;99.90;;;;;;4847277;29;20046;-66
2023/07/02 02:44:00;;;;;;;9.68;2.83;;;11.70;99.90;;;;;;4876156;29;20072;-68
2023/07/02 02:46:28;;;;;;;18.50;4.05;;;11.60;99.90;;;;;;4860757;29;20073;-67
2023/07/02 02:48:55;;;;;;;11.70;3.10;;;11.60;99.90;;;;;;4861952;29;20414;-68
2023/07/02 02:51:23;;;;;;;15.05;3.65;;;11.60;99.90;;;;;;4859368;29;20046;-69
2023/07/02 02:53:51;;;;;;;14.10;4.20;;;11.50;99.90;;;;;;4861920;29;20057;-68
2023/07/02 02:56:19;;;;;;;12.70;3.72;;;11.50;99.90;;;;;;4861930;29;20076;-68
2023/07/02 02:58:47;;;;;;;16.10;3.65;;;11.50;99.90;;;;;;4860581;29;20057;-66
2023/07/02 03:01:15;;;;;;;15.73;3.17;;;11.50;99.90;;;;;;4876088;29;20401;-68
2023/07/02 03:03:45;;;;;;;19.80;4.90;;;11.50;99.90;;;;;;4869596;29;20064;-67
2023/07/02 03:06:14;;;;;;;14.05;3.42;;;11.40;99.90;;;;;;4872784;29;20424;-66
2023/07/02 03:08:43;;;;;;;14.10;3.57;;;11.50;99.90;;;;;;4843451;29;20050;-65
2023/07/02 03:11:10;;;;;;;13.10;3.38;;;11.50;99.90;;;;;;4843031;29;20689;-65
2023/07/02 03:13:39;;;;;;;15.65;3.53;;;11.40;99.90;;;;;;4858755;29;20050;-67
2023/07/02 03:16:06;;;;;;;11.52;3.72;;;11.40;99.90;;;;;;4862510;29;20050;-61
2023/07/02 03:18:35;;;;;;;11.95;3.58;;;11.40;99.90;;;;;;4863273;29;20501;-63
2023/07/02 03:21:03;;;;;;;10.57;3.33;;;11.40;99.90;;;;;;4863409;29;20053;-60
2023/07/02 03:23:30;;;;;;;14.52;3.47;;;11.40;99.90;;;;;;4863938;29;20050;-60
2023/07/02 03:25:58;;;;;;;9.93;2.88;;;11.40;99.90;;;;;;4864419;29;20406;-60
2023/07/02 03:28:26;;;;;;;13.15;4.45;;;11.30;99.90;;;;;;4870169;29;20053;-62
2023/07/02 03:30:54;;;;;;;10.88;3.55;;;11.30;99.90;;;;;;4880037;29;20437;-61
2023/07/02 03:33:22;;;;;;;12.40;4.05;;;11.30;99.90;;;;;;4864162;29;20060;-62
2023/07/02 03:35:50;;;;;;;9.88;3.13;;;11.20;99.90;;;;;;4861620;29;20064;-61
2023/07/02 03:38:18;;;;;;;13.63;3.65;;;11.20;99.90;;;;;;4861033;29;20037;-59
2023/07/02 03:40:45;;;;;;;12.27;3.25;;;11.20;99.90;;;;;;4860290;29;20041;-60
2023/07/02 03:43:14;;;;;;;10.30;3.67;;;11.20;99.90;;;;;;4859778;29;20053;-61
2023/07/02 03:45:41;;;;;;;15.30;3.47;;;11.10;99.90;;;;;;4861289;29;20501;-60
2023/07/02 03:48:09;;;;;;;13.05;3.33;;;11.10;99.90;;;;;;4860969;29;20052;-61
2023/07/02 03:50:37;;;;;;;10.40;3.40;;;11.10;99.90;;;;;;4861173;29;20069;-60
2023/07/02 03:53:05;;;;;;;10.05;3.95;;;11.00;99.90;;;;;;4860911;29;20054;-61
2023/07/02 03:55:33;;;;;;;12.13;3.17;;;11.00;99.90;;;;;;4860971;29;20049;-60
2023/07/02 03:58:01;;;;;;;16.77;3.28;;;10.90;99.90;;;;;;4865996;29;20057;-60
2023/07/02 04:00:29;;;;;;;11.23;3.15;;;10.90;99.90;;;;;;4879615;29;20045;-61
2023/07/02 04:02:57;;;;;;;12.00;3.15;;;10.80;99.90;;;;;;4868596;29;20471;-60
2023/07/02 04:05:25;;;;;;;14.80;4.07;;;10.80;99.90;;;;;;4861024;29;20057;-59
2023/07/02 04:07:53;;;;;;;8.02;3.50;;;10.80;99.90;;;;;;4860432;29;20054;-61
2023/07/02 04:10:21;;;;;;;11.43;2.83;;;10.70;99.90;;;;;;4860857;29;20060;-60
2023/07/02 04:12:49;;;;;;;14.15;3.72;;;10.70;99.90;;;;;;4874129;29;20057;-60
2023/07/02 04:15:17;;;;;;;9.45;3.42;;;10.60;99.90;;;;;;4860616;29;20057;-59
2023/07/02 04:17:45;;;;;;;10.23;3.22;;;10.60;99.90;;;;;;4860678;29;20623;-60
2023/07/02 04:20:13;;;;;;;13.68;3.15;;;10.60;99.90;;;;;;4860477;29;20490;-63
2023/07/02 04:22:40;;;;;;;15.90;3.45;;;10.60;99.90;;;;;;4860067;29;20136;-59
2023/07/02 04:25:09;;;;;;;10.25;2.90;;;10.60;99.90;;;;;;4859128;29;20064;-62
2023/07/02 04:27:58;;;;;;;12.63;3.47;;;10.60;99.90;;;;;;4864939;29;20052;-61
2023/07/02 04:30:26;;;;;;;12.45;3.90;;;10.60;99.90;;;;;;4865135;29;20053;-61
2023/07/02 04:32:54;;;;;;;15.10;3.33;;;10.60;99.90;;;;;;4860325;29;20049;-60
2023/07/02 04:35:22;;;;;;;11.30;3.10;;;10.60;99.90;;;;;;4860505;29;20060;-60
2023/07/02 04:37:50;;;;;;;11.07;3.60;;;10.60;99.90;;;;;;4860081;29;20049;-63
2023/07/02 04:40:18;;;;;;;10.02;3.17;;;10.60;99.90;;;;;;4860269;29;20410;-59
2023/07/02 04:42:48;;;;;;;14.07;3.97;;;10.70;99.90;;;;;;4858586;29;20076;-62
2023/07/02 04:45:16;;;;;;;16.50;3.92;;;10.60;99.90;;;;;;4858522;29;20065;-61
2023/07/02 04:47:45;;;;;;;13.82;4.18;;;10.60;99.90;;;;;;4851230;29;20405;-67
2023/07/02 04:50:13;;;;;;;11.23;3.35;;;10.70;99.90;;;;;;4838394;29;20058;-63
2023/07/02 04:52:41;;;;;;;12.95;3.65;;;10.70;99.90;;;;;;4838209;29;20475;-67
2023/07/02 04:55:09;;;;;;;19.75;3.75;;;10.70;99.90;;;;;;4853078;29;20413;-67
2023/07/02 04:57:37;;;;;;;11.27;3.28;;;10.70;99.90;;;;;;4857380;29;20049;-67
2023/07/02 05:00:07;;;;;;;13.20;3.45;;;10.70;99.90;;;;;;4875010;29;20044;-68
2023/07/02 05:02:36;;;;;;;9.40;3.45;;;10.70;99.90;;;;;;4861426;29;20050;-63
2023/07/02 05:05:05;;;;;;;16.83;3.70;;;10.70;99.90;;;;;;4861254;29;20494;-65
2023/07/02 05:07:33;;;;;;;12.40;4.22;;;10.70;99.90;;;;;;4843533;29;20512;-60
2023/07/02 05:10:01;;;;;;;12.57;3.33;;;10.70;99.90;;;;;;4853475;29;20049;-60
2023/07/02 05:12:30;;;;;;;14.45;3.95;;;10.70;99.90;;;;;;4852404;29;20042;-61
2023/07/02 05:14:58;;;;;;;11.13;3.35;;;10.80;99.90;;;;;;4852172;29;20038;-62
2023/07/02 05:17:26;;;;;;;10.05;3.03;;;10.80;99.90;;;;;;4852104;29;20041;-60
2023/07/02 05:19:54;;;;;;;13.73;3.85;;;10.80;99.90;;;;;;4850692;29;20046;-60
2023/07/02 05:22:23;;;;;;;10.73;3.58;;;10.90;99.90;;;;;;4862497;29;20068;-60
2023/07/02 05:24:51;;;;;;;13.98;3.70;;;11.00;99.90;;;;;;4855791;29;20054;-59
2023/07/02 05:27:19;;;;;;;9.60;3.13;;;11.10;99.90;;;;;;4856115;29;20355;-61
2023/07/02 05:29:47;;;;;;;10.52;3.28;;;11.10;99.90;;;;;;4874623;29;20085;-60
2023/07/02 05:32:19;;;;;;;23.40;3.35;;;11.20;99.90;;;;;;4866069;29;20057;-60
2023/07/02 05:34:48;;;;;;;11.85;2.78;;;11.30;99.90;;;;;;4851023;29;20053;-61
2023/07/02 05:37:16;;;;;;;15.30;3.38;;;11.40;99.90;;;;;;4845083;29;20495;-60
2023/07/02 05:39:43;;;;;;;15.68;3.15;;;11.50;99.90;;;;;;4851326;29;20080;-60
2023/07/02 05:42:12;;;;;;;10.43;3.03;;;11.60;99.90;;;;;;4853769;29;20405;-62
2023/07/02 05:44:40;;;;;;;8.18;2.50;;;11.70;99.90;;;;;;4854222;29;20132;-60
2023/07/02 05:47:07;;;;;;;16.13;3.10;;;11.80;99.90;;;;;;4855810;29;20049;-60
2023/07/02 05:49:35;;;;;;;13.18;3.75;;;11.90;99.90;;;;;;4856085;29;20062;-61
2023/07/02 05:52:03;;;;;;;8.85;2.95;;;12.00;99.90;;;;;;4849643;29;20064;-60
2023/07/02 05:54:31;;;;;;;11.25;3.20;;;12.10;99.90;;;;;;4836009;29;20053;-61
2023/07/02 05:56:59;;;;;;;12.38;3.67;;;12.10;99.90;;;;;;4853926;29;20041;-64
2023/07/02 05:59:26;;;;;;;6.95;2.78;;;12.10;99.90;;;;;;4872249;29;20056;-62
2023/07/02 06:01:54;;;;;;;10.65;2.83;;;12.10;99.90;;;;;;4871181;29;20053;-67
2023/07/02 06:04:22;;;;;;;17.30;3.33;;;12.10;99.90;;;;;;4855187;29;20084;-65
2023/07/02 06:06:49;;;;;;;15.98;3.63;;;12.20;99.90;;;;;;4853643;29;20533;-64
2023/07/02 06:09:17;;;;;;;11.27;3.38;;;12.20;99.90;;;;;;4855951;29;20064;-68
2023/07/02 06:11:45;;;;;;;11.90;3.80;;;12.30;99.90;;;;;;4869750;29;20050;-63
2023/07/02 06:14:13;;;;;;;11.32;3.50;;;12.40;99.90;;;;;;4852167;29;20053;-65
2023/07/02 06:16:41;;;;;;;10.55;3.80;;;12.40;99.90;;;;;;4859370;29;20132;-63
2023/07/02 06:19:09;;;;;;;15.57;3.92;;;12.50;99.90;;;;;;4858365;29;20049;-65
2023/07/02 06:21:37;;;;;;;11.23;3.20;;;12.50;99.90;;;;;;4854760;29;20045;-64
2023/07/02 06:24:05;;;;;;;11.82;3.67;;;12.60;99.90;;;;;;4856930;29;20045;-63
2023/07/02 06:26:32;;;;;;;14.30;3.53;;;12.60;99.90;;;;;;4858790;29;20041;-62
2023/07/02 06:29:00;;;;;;;12.05;3.30;;;12.60;99.90;;;;;;4870596;29;20060;-60
2023/07/02 06:31:28;;;;;;;17.15;3.63;;;12.60;99.90;;;;;;4858942;29;20052;-63
2023/07/02 06:33:56;;;;;;;10.38;3.05;;;12.60;99.90;;;;;;4857342;29;20057;-61
2023/07/02 06:36:24;;;;;;;13.18;3.67;;;12.60;99.90;;;;;;4858823;29;20503;-60
2023/07/02 06:38:52;;;;;;;12.25;3.55;;;12.60;99.90;;;;;;4855551;29;20136;-64
2023/07/02 06:41:19;;;;;;;12.38;3.63;;;12.60;99.90;;;;;;4859096;29;20065;-60
2023/07/02 06:43:47;;;;;;;15.45;3.38;;;12.60;99.90;;;;;;4857078;29;20049;-62
2023/07/02 06:46:15;;;;;;;18.67;3.88;;;12.70;99.90;;;;;;4855975;29;20061;-65
2023/07/02 06:48:43;;;;;;;16.13;3.28;;;12.70;99.90;;;;;;4858660;29;20486;-63
2023/07/02 06:51:14;;;;;;;12.65;3.33;;;12.70;99.90;;;;;;4858653;29;20068;-63
2023/07/02 06:53:42;;;;;;;15.55;3.50;;;12.70;99.90;;;;;;4871696;29;20050;-60
2023/07/02 06:56:10;;;;;;;21.88;4.60;;;12.70;99.90;;;;;;4858705;29;20049;-61
2023/07/02 06:58:40;;;;;;;13.77;4.60;;;12.70;99.90;;;;;;4868147;29;20756;-60
2023/07/02 07:01:08;;;;;;;;;;;12.70;99.90;;;;;;4876796;29;20060;-61
2023/07/02 07:03:35;;;;;;;12.27;2.90;;;12.70;99.90;;;;;;4857985;29;19932;-62
2023/07/02 07:06:03;;;;;;;14.27;2.33;;;12.70;99.90;;;;;;4855967;29;20058;-59
2023/07/02 07:08:31;;;;;;;14.60;2.92;;;12.70;99.90;;;;;;4857052;29;20053;-59
2023/07/02 07:10:59;;;;;;;17.92;3.03;;;12.80;99.90;;;;;;4858207;29;20049;-60
2023/07/02 07:13:27;;;;;;;13.88;2.40;;;12.80;99.90;;;;;;4857003;29;20491;-62
2023/07/02 07:15:54;;;;;;;15.90;4.00;;;12.90;99.90;;;;;;4858016;29;20438;-61
2023/07/02 07:18:22;;;;;;;13.45;2.42;;;13.00;99.90;;;;;;4858467;29;20505;-60
2023/07/02 07:20:52;;;;;;;13.50;2.70;;;13.10;99.90;;;;;;4858610;29;20078;-59
2023/07/02 07:23:20;;;;;;;9.70;2.50;;;13.30;99.90;;;;;;4856885;29;20509;-61
2023/07/02 07:25:47;;;;;;;15.65;3.17;;;13.40;99.90;;;;;;4858314;29;20058;-59
2023/07/02 07:28:16;;;;;;;13.25;2.58;;;13.60;99.90;;;;;;4865011;29;20052;-60
2023/07/02 07:30:44;;;;;;;12.63;2.88;;;13.70;99.90;;;;;;4857957;29;20053;-60
2023/07/02 07:33:12;;;;;;;13.40;3.40;;;13.80;99.90;;;;;;4857791;29;20049;-60
2023/07/02 07:35:40;;;;;;;11.82;3.42;;;13.90;99.90;;;;;;4856451;29;20076;-62
2023/07/02 07:38:08;;;;;;;17.20;3.20;;;14.00;99.90;;;;;;4856973;29;20053;-60
2023/07/02 07:40:36;;;;;;;12.85;2.10;;;14.10;99.90;;;;;;4857913;29;20049;-60
2023/07/02 07:43:04;;;;;;;12.27;2.65;;;14.20;99.90;;;;;;4857094;29;20054;-60
2023/07/02 07:45:33;;;;;;;16.15;2.65;;;14.60;99.90;;;;;;4857762;29;20307;-59
2023/07/02 07:48:01;;;;;;;8.80;2.50;;;14.50;99.90;;;;;;4857752;29;20061;-60
2023/07/02 07:50:29;;;;;;;15.38;2.55;;;14.70;99.90;;;;;;4857485;29;20053;-60
2023/07/02 07:52:56;;;;;;;16.38;2.40;;;14.80;99.90;;;;;;4852841;29;20420;-60
2023/07/02 07:55:24;;;;;;;18.50;2.97;;;14.90;99.90;;;;;;4856662;29;20064;-59
2023/07/02 07:57:52;;;;;;;12.07;2.75;;;15.00;99.90;;;;;;4861591;29;20053;-61
2023/07/02 08:00:20;;;;;;;9.75;2.35;;;15.10;99.90;;;;;;4852610;29;20061;-59
2023/07/02 08:02:48;;;;;;;11.20;2.03;;;15.20;99.90;;;;;;4847756;29;20519;-60
2023/07/02 08:05:16;;;;;;;10.18;1.98;;;15.30;99.90;;;;;;4857584;29;20062;-59
2023/07/02 08:07:44;;;;;;;17.25;3.05;;;15.20;99.90;;;;;;4851978;29;20053;-58
2023/07/02 08:10:12;;;;;;;17.05;4.03;;;15.30;99.90;;;;;;4847869;29;20054;-59
2023/07/02 08:12:40;;;;;;;10.70;2.28;;;15.30;99.90;;;;;;4853883;29;20091;-58
2023/07/02 08:15:08;;;;;;;12.55;2.15;;;15.30;99.90;;;;;;4857090;29;20072;-59
2023/07/02 08:17:36;;;;;;;9.45;2.80;;;15.20;99.90;;;;;;4854292;29;20053;-58
2023/07/02 08:20:09;;;;;;;11.70;3.13;;;15.20;99.90;;;;;;4854253;29;20061;-59
2023/07/02 08:22:40;;;;;;;9.48;1.80;;;15.20;99.90;;;;;;4854284;29;20046;-61
2023/07/02 08:25:08;;;;;;;10.90;2.20;;;15.30;99.90;;;;;;4855534;29;20498;-60
2023/07/02 08:27:36;;;;;;;11.30;2.25;;;15.30;99.90;;;;;;4855243;29;20497;-61
2023/07/02 08:30:04;;;;;;;14.77;2.60;;;15.40;99.90;;;;;;4872850;29;20052;-62
2023/07/02 08:32:33;;;;;;;9.68;2.92;;;15.50;99.90;;;;;;4856230;29;20060;-60
2023/07/02 08:35:01;;;;;;;7.97;2.60;;;15.50;99.90;;;;;;4856668;29;20056;-60
2023/07/02 08:37:29;;;;;;;11.15;2.10;;;15.50;99.90;;;;;;4856863;29;20053;-67
2023/07/02 08:39:56;;;;;;;12.57;2.35;;;15.50;99.90;;;;;;4856311;29;20045;-67
2023/07/02 08:42:29;;;;;;;9.70;1.98;;;15.50;99.90;;;;;;4856690;29;20061;-61
2023/07/02 08:44:59;;;;;;;14.43;2.92;;;15.40;99.90;;;;;;4855556;29;20046;-65
2023/07/02 08:47:27;;;;;;;11.73;2.05;;;15.40;99.90;;;;;;4854676;29;20068;-65
2023/07/02 08:49:55;;;;;;;9.48;2.38;;;15.30;99.90;;;;;;4855622;29;20045;-64
2023/07/02 08:52:23;;;;;;;7.07;2.22;;;15.30;99.90;;;;;;4856501;29;20492;-61
2023/07/02 08:54:50;;;;;;;8.45;2.28;;;15.30;99.90;;;;;;4855549;29;20049;-62
2023/07/02 08:57:18;;;;;;;9.55;1.73;;;15.30;99.90;;;;;;4856146;29;20046;-62
2023/07/02 08:59:48;;;;;;;9.80;2.40;;;15.30;99.90;;;;;;4875283;29;20485;-63
2023/07/02 09:02:16;;;;;;;12.48;2.47;;;15.30;99.90;;;;;;4868127;29;20414;-61
2023/07/02 09:04:44;;;;;;;13.38;3.03;;;15.40;99.90;;;;;;4856363;29;20049;-59
2023/07/02 09:07:11;;;;;;;12.10;2.30;;;15.50;99.90;;;;;;4856165;29;20053;-59
2023/07/02 09:09:49;;;;;;;8.73;1.70;;;15.60;99.90;;;;;;4855331;29;20482;-59
2023/07/02 09:12:23;;;;;;;14.48;2.00;;;15.90;99.90;;;;;;4843429;29;20064;-59
2023/07/02 09:15:06;;;;;;;10.40;2.13;;;16.00;99.90;;;;;;4856015;29;20062;-58
2023/07/02 09:17:36;;;;;;;9.20;2.22;;;16.20;99.90;;;;;;4856856;29;20057;-58
2023/07/02 09:20:07;;;;;;;11.93;1.98;;;16.40;99.90;;;;;;4856223;29;20497;-60
2023/07/02 09:22:36;;;;;;;8.48;1.83;;;16.50;99.90;;;;;;4856036;29;20406;-58
2023/07/02 09:25:04;;;;;;;10.68;1.90;;;16.70;99.90;;;;;;4847481;29;20053;-58
2023/07/02 09:27:41;;;;;;;10.90;2.65;;;16.80;99.90;;;;;;4857921;29;20433;-60
2023/07/02 09:30:15;;;;;;;8.80;1.67;;;16.90;99.90;;;;;;4874708;29;20068;-59
2023/07/02 09:32:44;;;;;;;9.43;2.22;;;16.90;99.90;;;;;;4845946;29;20053;-61
2023/07/02 09:35:14;;;;;;;15.20;2.55;;;17.00;99.90;;;;;;4855937;29;20041;-63
2023/07/02 09:37:44;;;;;;;9.35;1.70;;;17.10;99.90;;;;;;4856233;29;20060;-60
2023/07/02 09:40:12;;;;;;;;;;;17.20;99.90;;;;;;4839744;29;20208;-58
2023/07/02 09:42:42;;;;;;;9.00;1.83;;;17.30;99.90;;;;;;4863918;29;20464;-59
2023/07/02 09:45:11;;;;;;;10.30;2.03;;;17.30;99.90;;;;;;4869811;29;20057;-60
2023/07/02 09:47:45;;;;;;;9.35;1.63;;;17.30;99.90;;;;;;4855777;29;20388;-59
2023/07/02 09:50:15;;;;;;;8.40;2.08;;;17.30;99.90;;;;;;4855965;29;20064;-67
2023/07/02 09:52:46;;;;;;;9.90;2.58;;;17.30;99.90;;;;;;4855515;29;20065;-60
2023/07/02 09:55:15;;;;;;;12.23;2.33;;;17.40;99.90;;;;;;4854734;29;20069;-61
2023/07/02 09:57:44;;;;;;;11.38;1.98;;;17.50;99.90;;;;;;4858574;29;20053;-60
2023/07/02 10:00:12;;;;;;;4.50;1.70;;;17.60;99.70;;;;;;4857072;29;20552;-60
2023/07/02 10:02:40;;;;;;;7.43;1.73;;;17.70;99.40;;;;;;4870186;29;20057;-60
2023/07/02 10:05:09;;;;;;;7.53;1.58;;;17.70;99.40;;;;;;4855796;29;20053;-59
2023/07/02 10:07:37;;;;;;;9.95;2.28;;;17.80;99.60;;;;;;4855519;29;20049;-59
2023/07/02 10:10:06;;;;;;;11.40;1.50;;;17.90;99.90;;;;;;4841013;29;20057;-60
2023/07/02 10:12:34;;;;;;;12.10;2.15;;;18.00;99.00;;;;;;4857940;29;20060;-59
2023/07/02 10:15:01;;;;;;;5.82;1.35;;;18.00;98.30;;;;;;4852187;29;20052;-59
2023/07/02 10:17:31;;;;;;;5.38;1.98;;;18.10;98.60;;;;;;4855308;29;20061;-60
2023/07/02 10:20:10;;;;;;;8.32;1.38;;;18.10;97.70;;;;;;4855599;29;20057;-59
2023/07/02 10:22:52;;;;;;;6.60;1.23;;;18.20;98.10;;;;;;4855341;29;20049;-59
2023/07/02 10:25:29;;;;;;;4.25;1.00;;;18.30;97.80;;;;;;4839187;29;20053;-58
2023/07/02 10:27:56;;;;;;;5.75;1.45;;;18.30;97.10;;;;;;4860153;29;20049;-59
2023/07/02 10:30:35;;;;;;;6.35;1.67;;;18.30;96.80;;;;;;4872905;29;20060;-58
2023/07/02 10:33:15;;;;;;;7.63;1.25;;;18.20;97.10;;;;;;4862166;29;20418;-58
2023/07/02 10:35:47;;;;;;;6.07;1.52;;;18.20;96.80;;;;;;4855712;29;20049;-61
2023/07/02 10:38:23;;;;;;;6.63;1.30;;;18.10;96.90;;;;;;4855242;29;20054;-60
2023/07/02 10:41:00;;;;;;;9.52;1.30;;;18.00;96.70;;;;;;4842125;29;20049;-58
2023/07/02 10:43:31;;;;;;;6.18;1.20;;;18.10;97.10;;;;;;4853845;29;20410;-59
2023/07/02 10:46:00;;;;;;;4.97;1.52;;;18.20;97.00;;;;;;4855711;29;20130;-59
2023/07/02 10:48:29;;;;;;;5.15;1.20;;;18.30;96.50;;;;;;4855138;29;20057;-59
2023/07/02 10:50:57;;;;;;;9.18;1.70;;;18.50;96.10;;;;;;4856172;29;20409;-59
2023/07/02 10:53:26;;;;;;;4.70;1.00;;;18.70;96.00;;;;;;4857849;29;20052;-59
2023/07/02 10:55:56;;;;;;;3.63;1.27;;;18.80;95.60;;;;;;4844219;29;20056;-59
2023/07/02 10:58:25;;;;;;;6.82;1.40;;;18.90;95.50;;;;;;4851145;29;20390;-59
2023/07/02 11:00:53;;;;;;;5.43;1.40;;;18.90;93.90;;;;;;4855618;29;20642;-59
2023/07/02 11:03:23;;;;;;;10.65;1.50;;;18.80;94.00;;;;;;4854496;29;20057;-58
2023/07/02 11:05:52;;;;;;;5.70;1.40;;;18.80;94.60;;;;;;4854294;29;20048;-58
2023/07/02 11:08:21;;;;;;;4.28;1.17;;;19.00;94.30;;;;;;4872293;29;20049;-60
2023/07/02 11:10:49;;;;;;;4.65;1.42;;;19.20;94.70;;;;;;4854564;29;20080;-58
2023/07/02 11:13:19;;;;;;;6.15;1.25;;;19.20;94.90;;;;;;4854068;29;20057;-59
2023/07/02 11:15:47;;;;;;;7.10;1.02;;;19.40;95.00;;;;;;4849664;29;20042;-58
2023/07/02 11:18:17;;;;;;;2.97;1.00;;;19.90;93.10;;;;;;4854145;29;20049;-59
2023/07/02 11:20:46;;;;;;;2.85;1.02;;;19.90;93.40;;;;;;4855290;29;20041;-59
2023/07/02 11:23:24;;;;;;;9.05;1.20;;;20.00;93.40;;;;;;4862996;29;20045;-59
2023/07/02 11:25:59;;;;;;;6.45;1.38;;;20.00;93.40;;;;;;4840432;29;20518;-58
2023/07/02 11:28:29;;;;;;;6.05;1.30;;;20.00;93.70;;;;;;4853726;29;20253;-59
2023/07/02 11:30:58;;;;;;;7.45;1.35;;;19.90;93.10;;;;;;4857051;29;20053;-59
2023/07/02 11:33:39;;;;;;;4.60;1.20;;;19.80;92.70;;;;;;4853045;29;20183;-59
2023/07/02 11:36:19;;;;;;;6.50;1.30;;;19.60;92.80;;;;;;4846989;29;20513;-58
2023/07/02 11:38:49;;;;;;;10.45;1.38;;;19.40;92.20;;;;;;4855604;29;20406;-58
2023/07/02 11:41:18;;;;;;;9.55;1.35;;;19.30;92.80;;;;;;4855868;29;20072;-58
2023/07/02 11:43:48;;;;;;;2.70;1.00;;;19.30;93.60;;;;;;4871272;29;20061;-59
2023/07/02 11:46:16;;;;;;;8.80;1.40;;;19.50;92.50;;;;;;4856238;29;20050;-59
2023/07/02 11:48:44;;;;;;;5.47;1.35;;;19.60;92.40;;;;;;4851445;29;20045;-59
2023/07/02 11:51:12;;;;;;;10.02;1.38;;;19.60;92.30;;;;;;4853789;29;20053;-58
2023/07/02 11:53:40;;;;;;;7.28;1.42;;;19.60;92.50;;;;;;4855266;29;20405;-58
2023/07/02 11:56:07;;;;;;;9.27;1.48;;;19.60;92.60;;;;;;4855152;29;20073;-59
2023/07/02 11:58:35;;;;;;;5.85;1.30;;;19.60;92.20;;;;;;4855190;29;20042;-60
2023/07/02 12:01:03;;;;;;;7.10;1.88;;;19.60;92.00;;;;;;4844527;29;20058;-58
2023/07/02 12:03:31;;;;;;;8.90;2.03;;;19.60;91.70;;;;;;4855319;29;20060;-58
2023/07/02 12:05:58;;;;;;;5.28;1.20;;;19.50;91.20;;;;;;4857754;29;20514;-59
2023/07/02 12:08:26;;;;;;;7.07;1.10;;;19.50;91.10;;;;;;4856117;29;20079;-58
2023/07/02 12:10:54;;;;;;;6.10;0.80;;;19.30;91.40;;;;;;4848148;29;20054;-58
2023/07/02 12:13:22;;;;;;;7.47;1.58;;;19.30;91.60;;;;;;4853869;29;20096;-58
2023/07/02 12:15:51;;;;;;;6.97;1.25;;;19.30;91.60;;;;;;4853749;29;20531;-59
2023/07/02 12:18:18;;;;;;;3.97;0.98;;;19.20;91.80;;;;;;4848072;29;20391;-59
2023/07/02 12:20:46;;;;;;;7.90;1.42;;;19.20;92.10;;;;;;4855820;29;20060;-58
2023/07/02 12:23:14;;;;;;;5.72;1.17;;;19.40;92.30;;;;;;4854295;29;20060;-58
2023/07/02 12:25:42;;;;;;;3.83;1.10;;;19.50;91.70;;;;;;4856073;29;20518;-58
2023/07/02 12:28:10;;;;;;;8.15;1.30;;;19.60;91.30;;;;;;4862670;29;20053;-59
2023/07/02 12:30:40;;;;;;;9.15;1.60;;;19.60;91.60;;;;;;4857430;29;20290;-58
2023/07/02 12:33:08;;;;;;;4.13;0.98;;;19.70;91.80;;;;;;4852250;29;20050;-59
2023/07/02 12:35:35;;;;;;;6.05;1.30;;;19.60;91.50;;;;;;4842238;29;20061;-58
2023/07/02 12:38:03;;;;;;;5.38;1.10;;;19.50;91.00;;;;;;4853219;29;20073;-58
2023/07/02 12:40:31;;;;;;;5.72;1.80;;;19.30;91.30;;;;;;4855874;29;20053;-58
2023/07/02 12:42:59;;;;;;;7.80;1.80;;;19.20;91.70;;;;;;4847214;29;20053;-58
2023/07/02 12:45:27;;;;;;;4.70;1.27;;;19.10;92.20;;;;;;4850473;29;20501;-63
2023/07/02 12:47:54;;;;;;;4.43;1.05;;;19.00;91.90;;;;;;4866592;29;20455;-60